sensor_id;sensor_type;location;lat;lon;timestamp;temperature;humidity
30053;DHT22;17074;52.478;13.534;2022-07-23T00:01:07;18.70;99.90
30053;DHT22;17074;52.478;13.534;2022-07-23T00:03:33;18.70;99.90
30053;DHT22;17074;52.478;13.534;2022-07-23T00:05:58;18.70;99.90
30053;DHT22;17074;52.478;13.534;2022-07-23T00:08:24;18.70;99.90
30053;DHT22;17074;52.478;13.534;2022-07-23T00:10:50;18.70;99.90
30053;DHT22;17074;52.478;13.534;2022-07-23T00:13:15;18.60;99.90
30053;DHT22;17074;52.478;13.534;2022-07-23T00:15:41;18.60;99.90
30053;DHT22;17074;52.478;13.534;2022-07-23T00:18:06;18.50;99.90
30053;DHT22;17074;52.478;13.534;2022-07-23T00:20:32;18.50;99.90
30053;DHT22;17074;52.478;13.534;2022-07-23T00:22:58;18.40;99.90
30053;DHT22;17074;52.478;13.534;2022-07-23T00:25:24;18.40;99.90
30053;DHT22;17074;52.478;13.534;2022-07-23T00:27:50;18.40;99.90
30053;DHT22;17074;52.478;13.534;2022-07-23T00:30:16;18.40;99.90
30053;DHT22;17074;52.478;13.534;2022-07-23T00:32:49;18.30;99.90
30053;DHT22;17074;52.478;13.534;2022-07-23T00:35:15;18.20;99.90
30053;DHT22;17074;52.478;13.534;2022-07-23T00:37:41;18.10;99.90
30053;DHT22;17074;52.478;13.534;2022-07-23T00:40:08;18.10;99.90
30053;DHT22;17074;52.478;13.534;2022-07-23T00:42:33;18.10;99.90
30053;DHT22;17074;52.478;13.534;2022-07-23T00:44:59;18.10;99.90
30053;DHT22;17074;52.478;13.534;2022-07-23T00:47:25;18.10;99.90
30053;DHT22;17074;52.478;13.534;2022-07-23T00:49:51;18.20;99.90
30053;DHT22;17074;52.478;13.534;2022-07-23T00:52:17;18.20;99.90
30053;DHT22;17074;52.478;13.534;2022-07-23T00:54:42;18.30;99.90
30053;DHT22;17074;52.478;13.534;2022-07-23T00:57:08;18.30;99.90
30053;DHT22;17074;52.478;13.534;2022-07-23T00:59:34;18.30;99.90
30053;DHT22;17074;52.478;13.534;2022-07-23T01:02:00;18.30;99.90
30053;DHT22;17074;52.478;13.534;2022-07-23T01:04:25;18.40;99.90
30053;DHT22;17074;52.478;13.534;2022-07-23T01:06:51;18.40;99.90
30053;DHT22;17074;52.478;13.534;2022-07-23T01:09:17;18.30;99.90
30053;DHT22;17074;52.478;13.534;2022-07-23T01:11:43;18.30;99.90
30053;DHT22;17074;52.478;13.534;2022-07-23T01:14:11;18.30;99.90
30053;DHT22;17074;52.478;13.534;2022-07-23T01:16:36;18.40;99.90
30053;DHT22;17074;52.478;13.534;2022-07-23T01:19:02;18.50;99.90
30053;DHT22;17074;52.478;13.534;2022-07-23T01:21:33;18.50;99.90
30053;DHT22;17074;52.478;13.534;2022-07-23T01:24:00;18.50;99.90
30053;DHT22;17074;52.478;13.534;2022-07-23T01:26:26;18.50;99.90
30053;DHT22;17074;52.478;13.534;2022-07-23T01:28:52;18.50;99.90
30053;DHT22;17074;52.478;13.534;2022-07-23T01:34:24;18.40;99.90
30053;DHT22;17074;52.478;13.534;2022-07-23T01:36:49;18.30;99.90
30053;DHT22;17074;52.478;13.534;2022-07-23T01:39:15;18.30;99.90
30053;DHT22;17074;52.478;13.534;2022-07-23T01:41:40;18.20;99.90
30053;DHT22;17074;52.478;13.534;2022-07-23T01:44:06;18.10;99.90
30053;DHT22;17074;52.478;13.534;2022-07-23T01:46:32;18.10;99.90
30053;DHT22;17074;52.478;13.534;2022-07-23T01:48:57;18.00;99.90
30053;DHT22;17074;52.478;13.534;2022-07-23T01:51:23;18.00;99.90
30053;DHT22;17074;52.478;13.534;2022-07-23T01:53:49;18.00;99.90
30053;DHT22;17074;52.478;13.534;2022-07-23T01:56:14;18.00;99.90
30053;DHT22;17074;52.478;13.534;2022-07-23T01:58:40;18.00;99.90
30053;DHT22;17074;52.478;13.534;2022-07-23T02:01:06;17.90;99.90
30053;DHT22;17074;52.478;13.534;2022-07-23T02:03:32;17.90;99.90
30053;DHT22;17074;52.478;13.534;2022-07-23T02:05:57;17.90;99.90
30053;DHT22;17074;52.478;13.534;2022-07-23T02:08:23;17.90;99.90
30053;DHT22;17074;52.478;13.534;2022-07-23T02:10:49;17.90;99.90
30053;DHT22;17074;52.478;13.534;2022-07-23T02:13:17;17.90;99.90
30053;DHT22;17074;52.478;13.534;2022-07-23T02:15:42;17.90;99.90
30053;DHT22;17074;52.478;13.534;2022-07-23T02:18:08;18.00;99.90
30053;DHT22;17074;52.478;13.534;2022-07-23T02:20:34;18.00;99.90
30053;DHT22;17074;52.478;13.534;2022-07-23T02:22:59;18.10;99.90
30053;DHT22;17074;52.478;13.534;2022-07-23T02:25:25;18.10;99.90
30053;DHT22;17074;52.478;13.534;2022-07-23T02:27:50;18.20;99.90
30053;DHT22;17074;52.478;13.534;2022-07-23T02:30:16;18.20;99.90
30053;DHT22;17074;52.478;13.534;2022-07-23T02:32:42;18.20;99.90
30053;DHT22;17074;52.478;13.534;2022-07-23T02:35:07;18.20;99.90
30053;DHT22;17074;52.478;13.534;2022-07-23T02:37:33;18.20;99.90
30053;DHT22;17074;52.478;13.534;2022-07-23T02:39:59;18.20;99.90
30053;DHT22;17074;52.478;13.534;2022-07-23T02:42:25;18.20;99.90
30053;DHT22;17074;52.478;13.534;2022-07-23T02:44:51;18.20;99.90
30053;DHT22;17074;52.478;13.534;2022-07-23T02:47:17;18.20;99.90
30053;DHT22;17074;52.478;13.534;2022-07-23T02:49:42;18.30;99.90
30053;DHT22;17074;52.478;13.534;2022-07-23T02:52:08;18.20;99.90
30053;DHT22;17074;52.478;13.534;2022-07-23T02:54:36;18.20;99.90
30053;DHT22;17074;52.478;13.534;2022-07-23T02:57:02;18.20;99.90
30053;DHT22;17074;52.478;13.534;2022-07-23T02:59:27;18.20;99.90
30053;DHT22;17074;52.478;13.534;2022-07-23T03:01:53;18.20;99.90
30053;DHT22;17074;52.478;13.534;2022-07-23T03:04:19;18.20;99.90
30053;DHT22;17074;52.478;13.534;2022-07-23T03:06:44;18.20;99.90
30053;DHT22;17074;52.478;13.534;2022-07-23T03:09:10;18.20;99.90
30053;DHT22;17074;52.478;13.534;2022-07-23T03:11:36;18.10;99.90
30053;DHT22;17074;52.478;13.534;2022-07-23T03:14:01;18.10;99.90
30053;DHT22;17074;52.478;13.534;2022-07-23T03:16:27;18.10;99.90
30053;DHT22;17074;52.478;13.534;2022-07-23T03:18:52;18.10;99.90
30053;DHT22;17074;52.478;13.534;2022-07-23T03:21:18;18.10;99.90
30053;DHT22;17074;52.478;13.534;2022-07-23T03:23:44;18.10;99.90
30053;DHT22;17074;52.478;13.534;2022-07-23T03:26:09;18.10;99.90
30053;DHT22;17074;52.478;13.534;2022-07-23T03:28:35;18.20;99.90
30053;DHT22;17074;52.478;13.534;2022-07-23T03:31:00;18.20;99.90
30053;DHT22;17074;52.478;13.534;2022-07-23T03:33:26;18.20;99.90
30053;DHT22;17074;52.478;13.534;2022-07-23T03:35:52;18.30;99.90
30053;DHT22;17074;52.478;13.534;2022-07-23T03:38:17;18.30;99.90
30053;DHT22;17074;52.478;13.534;2022-07-23T03:44:04;18.40;99.90
30053;DHT22;17074;52.478;13.534;2022-07-23T03:46:30;18.50;99.90
30053;DHT22;17074;52.478;13.534;2022-07-23T03:48:55;18.60;99.90
30053;DHT22;17074;52.478;13.534;2022-07-23T03:51:21;18.60;99.90
30053;DHT22;17074;52.478;13.534;2022-07-23T03:53:47;18.50;99.90
30053;DHT22;17074;52.478;13.534;2022-07-23T03:56:14;18.50;99.90
30053;DHT22;17074;52.478;13.534;2022-07-23T03:58:39;18.50;99.90
30053;DHT22;17074;52.478;13.534;2022-07-23T04:01:05;18.40;99.90
30053;DHT22;17074;52.478;13.534;2022-07-23T04:03:31;18.40;99.90
30053;DHT22;17074;52.478;13.534;2022-07-23T04:05:57;18.30;99.90
30053;DHT22;17074;52.478;13.534;2022-07-23T04:08:22;18.30;99.90
30053;DHT22;17074;52.478;13.534;2022-07-23T04:10:48;18.30;99.90
30053;DHT22;17074;52.478;13.534;2022-07-23T04:13:13;18.40;99.90
30053;DHT22;17074;52.478;13.534;2022-07-23T04:15:39;18.40;99.90
30053;DHT22;17074;52.478;13.534;2022-07-23T04:18:05;18.40;99.90
30053;DHT22;17074;52.478;13.534;2022-07-23T04:20:31;18.30;99.90
30053;DHT22;17074;52.478;13.534;2022-07-23T04:22:56;18.30;99.90
30053;DHT22;17074;52.478;13.534;2022-07-23T04:25:22;18.30;99.90
30053;DHT22;17074;52.478;13.534;2022-07-23T04:27:47;18.40;99.90
30053;DHT22;17074;52.478;13.534;2022-07-23T04:30:13;18.50;99.90
30053;DHT22;17074;52.478;13.534;2022-07-23T04:32:38;18.40;99.90
30053;DHT22;17074;52.478;13.534;2022-07-23T04:35:04;18.40;99.90
30053;DHT22;17074;52.478;13.534;2022-07-23T04:37:30;18.40;99.90
30053;DHT22;17074;52.478;13.534;2022-07-23T04:39:55;18.40;99.90
30053;DHT22;17074;52.478;13.534;2022-07-23T04:42:21;18.30;99.90
30053;DHT22;17074;52.478;13.534;2022-07-23T04:44:47;18.30;99.90
30053;DHT22;17074;52.478;13.534;2022-07-23T04:47:12;18.10;99.90
30053;DHT22;17074;52.478;13.534;2022-07-23T04:49:38;18.00;99.90
30053;DHT22;17074;52.478;13.534;2022-07-23T04:52:04;18.10;99.90
30053;DHT22;17074;52.478;13.534;2022-07-23T04:54:29;18.10;99.90
30053;DHT22;17074;52.478;13.534;2022-07-23T04:56:55;18.10;99.90
30053;DHT22;17074;52.478;13.534;2022-07-23T04:59:20;18.00;99.90
30053;DHT22;17074;52.478;13.534;2022-07-23T05:01:46;18.00;99.90
30053;DHT22;17074;52.478;13.534;2022-07-23T05:04:12;17.90;99.90
30053;DHT22;17074;52.478;13.534;2022-07-23T05:06:37;17.90;99.90
30053;DHT22;17074;52.478;13.534;2022-07-23T05:09:03;17.80;99.90
30053;DHT22;17074;52.478;13.534;2022-07-23T05:11:29;17.80;99.90
30053;DHT22;17074;52.478;13.534;2022-07-23T05:13:55;17.60;99.90
30053;DHT22;17074;52.478;13.534;2022-07-23T05:16:21;17.20;99.90
30053;DHT22;17074;52.478;13.534;2022-07-23T05:18:47;17.00;99.90
30053;DHT22;17074;52.478;13.534;2022-07-23T05:21:13;17.00;99.90
30053;DHT22;17074;52.478;13.534;2022-07-23T05:23:38;16.90;99.90
30053;DHT22;17074;52.478;13.534;2022-07-23T05:26:04;16.90;99.90
30053;DHT22;17074;52.478;13.534;2022-07-23T05:28:30;17.00;99.90
30053;DHT22;17074;52.478;13.534;2022-07-23T05:30:56;17.10;99.90
30053;DHT22;17074;52.478;13.534;2022-07-23T05:33:21;17.20;99.90
30053;DHT22;17074;52.478;13.534;2022-07-23T05:35:47;17.20;99.90
30053;DHT22;17074;52.478;13.534;2022-07-23T05:38:13;17.40;99.90
30053;DHT22;17074;52.478;13.534;2022-07-23T05:40:38;17.50;99.90
30053;DHT22;17074;52.478;13.534;2022-07-23T05:43:04;17.50;99.90
30053;DHT22;17074;52.478;13.534;2022-07-23T05:45:30;17.60;99.90
30053;DHT22;17074;52.478;13.534;2022-07-23T05:47:55;17.50;99.90
30053;DHT22;17074;52.478;13.534;2022-07-23T05:50:21;17.50;99.90
30053;DHT22;17074;52.478;13.534;2022-07-23T05:52:46;17.50;99.90
30053;DHT22;17074;52.478;13.534;2022-07-23T05:55:13;17.50;99.90
30053;DHT22;17074;52.478;13.534;2022-07-23T05:57:39;17.20;99.90
30053;DHT22;17074;52.478;13.534;2022-07-23T06:00:06;17.20;99.90
30053;DHT22;17074;52.478;13.534;2022-07-23T06:02:32;17.40;99.90
30053;DHT22;17074;52.478;13.534;2022-07-23T06:04:58;17.50;99.90
30053;DHT22;17074;52.478;13.534;2022-07-23T06:07:24;17.60;99.90
30053;DHT22;17074;52.478;13.534;2022-07-23T06:09:49;17.70;99.90
30053;DHT22;17074;52.478;13.534;2022-07-23T06:12:16;17.70;99.90
30053;DHT22;17074;52.478;13.534;2022-07-23T06:14:42;17.70;99.90
30053;DHT22;17074;52.478;13.534;2022-07-23T06:17:07;17.70;99.90
30053;DHT22;17074;52.478;13.534;2022-07-23T06:19:33;17.70;99.90
30053;DHT22;17074;52.478;13.534;2022-07-23T06:21:59;17.70;99.90
30053;DHT22;17074;52.478;13.534;2022-07-23T06:24:24;17.50;99.90
30053;DHT22;17074;52.478;13.534;2022-07-23T06:26:50;17.50;99.90
30053;DHT22;17074;52.478;13.534;2022-07-23T06:29:15;17.60;99.90
30053;DHT22;17074;52.478;13.534;2022-07-23T06:31:41;17.70;99.90
30053;DHT22;17074;52.478;13.534;2022-07-23T06:34:07;17.70;99.90
30053;DHT22;17074;52.478;13.534;2022-07-23T06:36:32;17.70;99.90
30053;DHT22;17074;52.478;13.534;2022-07-23T06:38:58;17.70;99.90
30053;DHT22;17074;52.478;13.534;2022-07-23T06:41:23;17.70;99.90
30053;DHT22;17074;52.478;13.534;2022-07-23T06:43:49;17.60;99.90
30053;DHT22;17074;52.478;13.534;2022-07-23T06:46:15;17.60;99.90
30053;DHT22;17074;52.478;13.534;2022-07-23T06:48:40;17.40;99.90
30053;DHT22;17074;52.478;13.534;2022-07-23T06:51:06;17.40;99.90
30053;DHT22;17074;52.478;13.534;2022-07-23T06:53:32;17.50;99.90
30053;DHT22;17074;52.478;13.534;2022-07-23T06:55:57;17.60;99.90
30053;DHT22;17074;52.478;13.534;2022-07-23T06:58:23;17.60;99.90
30053;DHT22;17074;52.478;13.534;2022-07-23T07:01:13;17.70;99.90
30053;DHT22;17074;52.478;13.534;2022-07-23T07:03:39;17.80;99.90
30053;DHT22;17074;52.478;13.534;2022-07-23T07:06:05;17.90;99.90
30053;DHT22;17074;52.478;13.534;2022-07-23T07:08:30;18.00;99.90
30053;DHT22;17074;52.478;13.534;2022-07-23T07:10:56;18.10;99.90
30053;DHT22;17074;52.478;13.534;2022-07-23T07:13:21;18.30;99.90
30053;DHT22;17074;52.478;13.534;2022-07-23T07:15:47;18.40;99.90
30053;DHT22;17074;52.478;13.534;2022-07-23T07:18:13;18.50;99.90
30053;DHT22;17074;52.478;13.534;2022-07-23T07:24:01;18.40;99.90
30053;DHT22;17074;52.478;13.534;2022-07-23T07:26:27;18.40;99.90
30053;DHT22;17074;52.478;13.534;2022-07-23T07:28:52;18.50;99.90
30053;DHT22;17074;52.478;13.534;2022-07-23T07:31:18;18.60;99.90
30053;DHT22;17074;52.478;13.534;2022-07-23T07:33:43;18.70;99.90
30053;DHT22;17074;52.478;13.534;2022-07-23T07:36:09;18.90;99.90
30053;DHT22;17074;52.478;13.534;2022-07-23T07:38:35;19.10;99.90
30053;DHT22;17074;52.478;13.534;2022-07-23T07:41:00;19.20;99.90
30053;DHT22;17074;52.478;13.534;2022-07-23T07:43:26;19.30;99.90
30053;DHT22;17074;52.478;13.534;2022-07-23T07:46:25;19.40;99.90
30053;DHT22;17074;52.478;13.534;2022-07-23T07:48:53;19.60;99.90
30053;DHT22;17074;52.478;13.534;2022-07-23T07:51:18;19.50;99.90
30053;DHT22;17074;52.478;13.534;2022-07-23T07:53:44;19.50;99.90
30053;DHT22;17074;52.478;13.534;2022-07-23T07:56:10;19.60;99.90
30053;DHT22;17074;52.478;13.534;2022-07-23T07:58:35;19.70;99.90
30053;DHT22;17074;52.478;13.534;2022-07-23T08:01:01;20.00;99.90
30053;DHT22;17074;52.478;13.534;2022-07-23T08:03:27;20.00;99.90
30053;DHT22;17074;52.478;13.534;2022-07-23T08:05:53;20.00;99.90
30053;DHT22;17074;52.478;13.534;2022-07-23T08:08:19;20.00;99.90
30053;DHT22;17074;52.478;13.534;2022-07-23T08:10:45;20.00;99.90
30053;DHT22;17074;52.478;13.534;2022-07-23T08:13:13;20.10;99.90
30053;DHT22;17074;52.478;13.534;2022-07-23T08:15:40;20.30;99.90
30053;DHT22;17074;52.478;13.534;2022-07-23T08:18:06;20.30;99.90
30053;DHT22;17074;52.478;13.534;2022-07-23T08:20:31;20.30;99.90
30053;DHT22;17074;52.478;13.534;2022-07-23T08:22:59;20.50;99.90
30053;DHT22;17074;52.478;13.534;2022-07-23T08:25:34;20.60;99.90
30053;DHT22;17074;52.478;13.534;2022-07-23T08:28:02;20.80;99.90
30053;DHT22;17074;52.478;13.534;2022-07-23T08:30:29;20.90;99.90
30053;DHT22;17074;52.478;13.534;2022-07-23T08:32:58;20.90;99.90
30053;DHT22;17074;52.478;13.534;2022-07-23T08:35:29;20.70;99.90
30053;DHT22;17074;52.478;13.534;2022-07-23T08:37:57;21.10;99.90
30053;DHT22;17074;52.478;13.534;2022-07-23T08:40:26;21.50;99.90
30053;DHT22;17074;52.478;13.534;2022-07-23T08:42:51;21.70;99.90
30053;DHT22;17074;52.478;13.534;2022-07-23T08:45:19;21.30;99.90
30053;DHT22;17074;52.478;13.534;2022-07-23T08:47:55;21.50;99.90
30053;DHT22;17074;52.478;13.534;2022-07-23T08:50:23;21.80;99.90
30053;DHT22;17074;52.478;13.534;2022-07-23T08:52:49;22.20;99.90
30053;DHT22;17074;52.478;13.534;2022-07-23T08:55:20;22.60;99.90
30053;DHT22;17074;52.478;13.534;2022-07-23T08:57:50;22.90;99.90
30053;DHT22;17074;52.478;13.534;2022-07-23T09:00:17;22.80;99.90
30053;DHT22;17074;52.478;13.534;2022-07-23T09:02:44;22.50;99.90
30053;DHT22;17074;52.478;13.534;2022-07-23T09:05:11;22.50;99.90
30053;DHT22;17074;52.478;13.534;2022-07-23T09:07:38;22.30;99.90
30053;DHT22;17074;52.478;13.534;2022-07-23T09:10:23;22.30;99.90
30053;DHT22;17074;52.478;13.534;2022-07-23T09:12:49;22.40;99.90
30053;DHT22;17074;52.478;13.534;2022-07-23T09:15:14;22.50;99.90
30053;DHT22;17074;52.478;13.534;2022-07-23T09:17:42;22.30;99.90
30053;DHT22;17074;52.478;13.534;2022-07-23T09:20:13;22.30;99.90
30053;DHT22;17074;52.478;13.534;2022-07-23T09:22:45;22.00;99.90
30053;DHT22;17074;52.478;13.534;2022-07-23T09:25:18;22.00;99.90
30053;DHT22;17074;52.478;13.534;2022-07-23T09:30:16;21.60;99.90
30053;DHT22;17074;52.478;13.534;2022-07-23T09:32:42;21.30;99.90
30053;DHT22;17074;52.478;13.534;2022-07-23T09:35:08;21.50;99.90
30053;DHT22;17074;52.478;13.534;2022-07-23T09:37:34;21.80;99.90
30053;DHT22;17074;52.478;13.534;2022-07-23T09:40:10;22.10;99.90
30053;DHT22;17074;52.478;13.534;2022-07-23T09:42:55;22.40;99.90
30053;DHT22;17074;52.478;13.534;2022-07-23T09:45:20;22.80;99.90
30053;DHT22;17074;52.478;13.534;2022-07-23T09:47:46;22.60;99.90
30053;DHT22;17074;52.478;13.534;2022-07-23T09:50:12;22.80;99.90
30053;DHT22;17074;52.478;13.534;2022-07-23T09:52:44;22.80;99.90
30053;DHT22;17074;52.478;13.534;2022-07-23T09:55:10;22.90;99.90
30053;DHT22;17074;52.478;13.534;2022-07-23T09:57:36;23.00;99.90
30053;DHT22;17074;52.478;13.534;2022-07-23T10:00:04;23.20;99.90
30053;DHT22;17074;52.478;13.534;2022-07-23T10:02:34;23.10;99.90
30053;DHT22;17074;52.478;13.534;2022-07-23T10:05:01;23.10;99.90
30053;DHT22;17074;52.478;13.534;2022-07-23T10:07:27;23.30;99.90
30053;DHT22;17074;52.478;13.534;2022-07-23T10:09:57;23.60;99.90
30053;DHT22;17074;52.478;13.534;2022-07-23T10:12:24;23.60;99.90
30053;DHT22;17074;52.478;13.534;2022-07-23T10:14:51;23.20;99.90
30053;DHT22;17074;52.478;13.534;2022-07-23T10:17:17;23.30;99.90
30053;DHT22;17074;52.478;13.534;2022-07-23T10:19:43;23.40;99.90
30053;DHT22;17074;52.478;13.534;2022-07-23T10:22:13;23.70;99.90
30053;DHT22;17074;52.478;13.534;2022-07-23T10:24:59;23.90;99.90
30053;DHT22;17074;52.478;13.534;2022-07-23T10:30:20;24.50;99.90
30053;DHT22;17074;52.478;13.534;2022-07-23T10:32:53;24.60;99.90
30053;DHT22;17074;52.478;13.534;2022-07-23T10:35:43;24.70;99.90
30053;DHT22;17074;52.478;13.534;2022-07-23T10:38:15;24.80;99.90
30053;DHT22;17074;52.478;13.534;2022-07-23T10:41:19;24.90;99.90
30053;DHT22;17074;52.478;13.534;2022-07-23T10:46:53;25.50;99.90
30053;DHT22;17074;52.478;13.534;2022-07-23T10:49:28;25.60;99.90
30053;DHT22;17074;52.478;13.534;2022-07-23T10:52:23;25.60;99.90
30053;DHT22;17074;52.478;13.534;2022-07-23T10:57:18;25.40;99.90
30053;DHT22;17074;52.478;13.534;2022-07-23T11:02:41;25.20;99.90
30053;DHT22;17074;52.478;13.534;2022-07-23T11:05:10;24.90;99.90
30053;DHT22;17074;52.478;13.534;2022-07-23T11:07:37;24.70;99.90
30053;DHT22;17074;52.478;13.534;2022-07-23T11:10:47;24.60;99.90
30053;DHT22;17074;52.478;13.534;2022-07-23T11:16:13;24.20;99.90
30053;DHT22;17074;52.478;13.534;2022-07-23T11:24:21;24.00;99.90
30053;DHT22;17074;52.478;13.534;2022-07-23T11:26:53;24.00;99.90
30053;DHT22;17074;52.478;13.534;2022-07-23T11:31:55;23.90;99.90
30053;DHT22;17074;52.478;13.534;2022-07-23T11:34:41;23.90;99.90
30053;DHT22;17074;52.478;13.534;2022-07-23T11:37:13;24.10;99.90
30053;DHT22;17074;52.478;13.534;2022-07-23T11:39:57;24.10;99.90
30053;DHT22;17074;52.478;13.534;2022-07-23T11:42:23;24.00;99.90
30053;DHT22;17074;52.478;13.534;2022-07-23T11:44:50;24.00;99.90
30053;DHT22;17074;52.478;13.534;2022-07-23T11:47:25;24.10;99.90
30053;DHT22;17074;52.478;13.534;2022-07-23T11:50:01;24.10;99.90
30053;DHT22;17074;52.478;13.534;2022-07-23T11:52:28;24.20;99.90
30053;DHT22;17074;52.478;13.534;2022-07-23T11:54:55;24.20;99.90
30053;DHT22;17074;52.478;13.534;2022-07-23T11:57:27;24.50;99.90
30053;DHT22;17074;52.478;13.534;2022-07-23T11:59:56;24.70;99.90
30053;DHT22;17074;52.478;13.534;2022-07-23T12:02:22;24.80;99.90
30053;DHT22;17074;52.478;13.534;2022-07-23T12:04:50;24.80;99.90
30053;DHT22;17074;52.478;13.534;2022-07-23T12:07:36;24.70;99.90
30053;DHT22;17074;52.478;13.534;2022-07-23T12:12:51;25.00;99.90
30053;DHT22;17074;52.478;13.534;2022-07-23T12:15:39;25.00;99.90
30053;DHT22;17074;52.478;13.534;2022-07-23T12:18:07;25.10;99.90
30053;DHT22;17074;52.478;13.534;2022-07-23T12:20:56;25.30;99.90
30053;DHT22;17074;52.478;13.534;2022-07-23T12:23:24;25.40;99.90
30053;DHT22;17074;52.478;13.534;2022-07-23T12:25:51;25.40;99.90
30053;DHT22;17074;52.478;13.534;2022-07-23T12:28:28;25.50;99.90
30053;DHT22;17074;52.478;13.534;2022-07-23T12:30:55;25.60;99.90
30053;DHT22;17074;52.478;13.534;2022-07-23T12:33:53;25.70;99.90
30053;DHT22;17074;52.478;13.534;2022-07-23T12:36:19;25.80;99.90
30053;DHT22;17074;52.478;13.534;2022-07-23T12:38:48;25.90;99.90
30053;DHT22;17074;52.478;13.534;2022-07-23T12:41:14;25.90;99.90
30053;DHT22;17074;52.478;13.534;2022-07-23T12:43:43;25.90;99.90
30053;DHT22;17074;52.478;13.534;2022-07-23T12:46:17;25.90;99.90
30053;DHT22;17074;52.478;13.534;2022-07-23T12:53:54;26.10;99.90
30053;DHT22;17074;52.478;13.534;2022-07-23T12:56:31;26.10;99.90
30053;DHT22;17074;52.478;13.534;2022-07-23T12:59:08;26.10;99.90
30053;DHT22;17074;52.478;13.534;2022-07-23T13:01:43;26.30;99.90
30053;DHT22;17074;52.478;13.534;2022-07-23T13:04:16;26.40;99.90
30053;DHT22;17074;52.478;13.534;2022-07-23T13:06:49;26.40;99.90
30053;DHT22;17074;52.478;13.534;2022-07-23T13:09:17;26.60;99.90
30053;DHT22;17074;52.478;13.534;2022-07-23T13:11:44;26.80;99.90
30053;DHT22;17074;52.478;13.534;2022-07-23T13:14:11;26.90;99.90
30053;DHT22;17074;52.478;13.534;2022-07-23T13:16:38;26.70;99.90
30053;DHT22;17074;52.478;13.534;2022-07-23T13:19:05;26.50;99.90
30053;DHT22;17074;52.478;13.534;2022-07-23T13:21:31;26.20;99.90
30053;DHT22;17074;52.478;13.534;2022-07-23T13:23:58;26.00;99.90
30053;DHT22;17074;52.478;13.534;2022-07-23T13:26:24;25.90;99.90
30053;DHT22;17074;52.478;13.534;2022-07-23T13:28:50;25.70;99.90
30053;DHT22;17074;52.478;13.534;2022-07-23T13:31:19;25.50;99.90
30053;DHT22;17074;52.478;13.534;2022-07-23T13:33:44;25.60;99.90
30053;DHT22;17074;52.478;13.534;2022-07-23T13:36:11;25.50;99.90
30053;DHT22;17074;52.478;13.534;2022-07-23T13:38:36;25.50;99.90
30053;DHT22;17074;52.478;13.534;2022-07-23T13:41:02;25.50;99.90
30053;DHT22;17074;52.478;13.534;2022-07-23T13:43:29;25.50;99.90
30053;DHT22;17074;52.478;13.534;2022-07-23T13:45:55;25.60;99.90
30053;DHT22;17074;52.478;13.534;2022-07-23T13:48:21;25.80;99.90
30053;DHT22;17074;52.478;13.534;2022-07-23T13:50:47;25.90;99.90
30053;DHT22;17074;52.478;13.534;2022-07-23T13:53:19;25.80;99.90
30053;DHT22;17074;52.478;13.534;2022-07-23T13:55:46;25.90;99.90
30053;DHT22;17074;52.478;13.534;2022-07-23T13:58:13;25.90;99.90
30053;DHT22;17074;52.478;13.534;2022-07-23T14:00:45;26.10;99.90
30053;DHT22;17074;52.478;13.534;2022-07-23T14:03:10;26.10;99.90
30053;DHT22;17074;52.478;13.534;2022-07-23T14:05:36;26.10;99.90
30053;DHT22;17074;52.478;13.534;2022-07-23T14:08:03;26.30;99.90
30053;DHT22;17074;52.478;13.534;2022-07-23T14:10:28;26.30;99.90
30053;DHT22;17074;52.478;13.534;2022-07-23T14:12:54;26.30;99.90
30053;DHT22;17074;52.478;13.534;2022-07-23T14:15:22;26.30;99.90
30053;DHT22;17074;52.478;13.534;2022-07-23T14:17:47;26.30;99.90
30053;DHT22;17074;52.478;13.534;2022-07-23T14:20:14;26.30;99.90
30053;DHT22;17074;52.478;13.534;2022-07-23T14:22:40;26.30;99.90
30053;DHT22;17074;52.478;13.534;2022-07-23T14:25:08;26.30;99.90
30053;DHT22;17074;52.478;13.534;2022-07-23T14:27:34;26.50;99.90
30053;DHT22;17074;52.478;13.534;2022-07-23T14:29:59;26.40;99.90
30053;DHT22;17074;52.478;13.534;2022-07-23T14:32:26;26.40;99.90
30053;DHT22;17074;52.478;13.534;2022-07-23T14:34:51;26.30;99.90
30053;DHT22;17074;52.478;13.534;2022-07-23T14:37:17;26.40;99.90
30053;DHT22;17074;52.478;13.534;2022-07-23T14:39:43;26.50;99.90
30053;DHT22;17074;52.478;13.534;2022-07-23T14:42:09;26.50;99.90
30053;DHT22;17074;52.478;13.534;2022-07-23T14:44:36;26.40;99.90
30053;DHT22;17074;52.478;13.534;2022-07-23T14:47:03;26.30;99.90
30053;DHT22;17074;52.478;13.534;2022-07-23T14:49:33;26.20;99.90
30053;DHT22;17074;52.478;13.534;2022-07-23T14:51:59;26.10;99.90
30053;DHT22;17074;52.478;13.534;2022-07-23T14:54:25;26.20;99.90
30053;DHT22;17074;52.478;13.534;2022-07-23T14:56:53;26.40;99.90
30053;DHT22;17074;52.478;13.534;2022-07-23T14:59:19;26.50;99.90
30053;DHT22;17074;52.478;13.534;2022-07-23T15:01:45;26.50;99.90
30053;DHT22;17074;52.478;13.534;2022-07-23T15:04:10;26.40;99.90
30053;DHT22;17074;52.478;13.534;2022-07-23T15:06:36;26.40;99.90
30053;DHT22;17074;52.478;13.534;2022-07-23T15:09:02;26.50;99.90
30053;DHT22;17074;52.478;13.534;2022-07-23T15:11:28;26.50;99.90
30053;DHT22;17074;52.478;13.534;2022-07-23T15:13:57;26.50;99.90
30053;DHT22;17074;52.478;13.534;2022-07-23T15:16:23;26.30;99.90
30053;DHT22;17074;52.478;13.534;2022-07-23T15:18:49;26.30;99.90
30053;DHT22;17074;52.478;13.534;2022-07-23T15:21:15;26.20;99.90
30053;DHT22;17074;52.478;13.534;2022-07-23T15:23:40;26.20;99.90
30053;DHT22;17074;52.478;13.534;2022-07-23T15:26:07;26.00;99.90
30053;DHT22;17074;52.478;13.534;2022-07-23T15:28:34;25.80;99.90
30053;DHT22;17074;52.478;13.534;2022-07-23T15:30:59;25.60;99.90
30053;DHT22;17074;52.478;13.534;2022-07-23T15:33:25;25.50;99.90
30053;DHT22;17074;52.478;13.534;2022-07-23T15:35:51;25.40;99.90
30053;DHT22;17074;52.478;13.534;2022-07-23T15:38:18;25.40;99.90
30053;DHT22;17074;52.478;13.534;2022-07-23T15:40:44;25.30;99.90
30053;DHT22;17074;52.478;13.534;2022-07-23T15:43:09;25.20;99.90
30053;DHT22;17074;52.478;13.534;2022-07-23T15:45:35;25.30;99.90
30053;DHT22;17074;52.478;13.534;2022-07-23T15:48:01;25.40;99.90
30053;DHT22;17074;52.478;13.534;2022-07-23T15:50:26;25.20;99.90
30053;DHT22;17074;52.478;13.534;2022-07-23T15:52:52;25.10;99.90
30053;DHT22;17074;52.478;13.534;2022-07-23T15:55:18;25.20;99.90
30053;DHT22;17074;52.478;13.534;2022-07-23T15:57:44;25.20;99.90
30053;DHT22;17074;52.478;13.534;2022-07-23T16:00:10;25.20;99.90